Time;durP1;ratioP1;P1;durP2;ratioP2;P2;SDS_P1;SDS_P2;PMS_P1;PMS_P2;Temp;Humidity;BMP_temperature;BMP_pressure;BME280_temperature;BME280_humidity;BME280_pressure;Samples;Min_cycle;Max_cycle;Signal;HPM_P1;HPM_P2
2021/10/02 00:31:53;;;;;;;39.58;18.25;;;;;;;2.43;100.00;101617.89;1718093;83;21152;-72
2021/10/02 00:34:38;;;;;;;39.67;20.35;;;;;;;2.43;100.00;101620.92;1716420;83;21032;-72
2021/10/02 00:44:50;;;;;;;23.73;11.18;;;;;;;2.38;100.00;101601.77;1718560;83;21123;-72
2021/10/02 00:47:20;;;;;;;30.25;14.43;;;;;;;2.43;100.00;101610.53;1717905;83;21049;-73
2021/10/02 00:49:51;;;;;;;17.50;9.85;;;;;;;2.45;100.00;101611.44;1692584;83;21092;-75
2021/10/02 00:52:18;;;;;;;29.95;15.90;;;;;;;2.45;100.00;101607.53;1692027;83;21327;-72
2021/10/02 00:54:45;;;;;;;34.43;16.30;;;;;;;2.46;100.00;101610.58;1717861;83;21105;-70
2021/10/02 00:57:12;;;;;;;38.63;19.42;;;;;;;2.46;100.00;101607.97;1717847;83;21144;-71
2021/10/02 00:59:39;;;;;;;38.35;20.60;;;;;;;2.48;100.00;101605.85;1717792;83;21066;-71
2021/10/02 01:02:28;;;;;;;44.40;22.13;;;;;;;2.48;100.00;101604.98;1717984;83;21038;-70
2021/10/02 01:05:06;;;;;;;38.00;20.08;;;;;;;2.48;100.00;101606.28;1718059;83;21171;-71
2021/10/02 01:08:04;;;;;;;42.25;21.25;;;;;;;2.47;100.00;101605.41;1717966;83;21045;-72
2021/10/02 01:11:17;;;;;;;40.43;20.32;;;;;;;2.47;100.00;101604.55;1719226;82;21314;-74
2021/10/02 01:14:12;;;;;;;40.23;20.92;;;;;;;2.49;100.00;101608.05;1747915;82;21291;-70
2021/10/02 01:16:41;;;;;;;40.75;19.45;;;;;;;2.46;100.00;101608.88;1743559;80;21006;-72
2021/10/02 01:19:48;;;;;;;45.55;21.20;;;;;;;2.44;100.00;101605.77;1733850;82;21043;-72
2021/10/02 01:22:48;;;;;;;29.90;13.90;;;;;;;2.45;100.00;101607.53;1733818;82;21077;-71
2021/10/02 01:26:05;;;;;;;36.50;19.85;;;;;;;2.42;100.00;101598.38;1734086;82;22555;-71
2021/10/02 01:28:35;;;;;;;40.28;21.23;;;;;;;2.44;100.00;101605.77;1705425;82;21054;-72
2021/10/02 01:31:17;;;;;;;42.95;20.45;;;;;;;2.42;100.00;101604.89;1711767;82;21125;-76
2021/10/02 01:33:45;;;;;;;39.85;19.12;;;;;;;2.37;100.00;101594.79;1705777;83;21057;-72
2021/10/02 01:47:32;;;;;;;44.70;21.68;;;;;;;2.20;100.00;101605.72;1706912;84;21636;-72
2021/10/02 01:49:59;;;;;;;40.52;22.15;;;;;;;2.15;100.00;101599.56;1707049;83;21599;-73
2021/10/02 01:52:32;;;;;;;23.85;13.43;;;;;;;2.13;100.00;101596.05;1707208;84;21259;-72
2021/10/02 01:54:59;;;;;;;28.80;13.88;;;;;;;2.14;100.00;101596.92;1705603;83;21061;-70
2021/10/02 01:57:31;;;;;;;24.37;13.22;;;;;;;2.14;100.00;101596.92;1707083;84;21639;-70
2021/10/02 02:00:04;;;;;;;35.23;19.52;;;;;;;2.18;100.00;101597.02;1708371;82;21073;-70
2021/10/02 02:02:33;;;;;;;36.88;19.62;;;;;;;2.23;100.00;101599.71;1719159;82;21040;-71
2021/10/02 02:05:01;;;;;;;39.08;21.48;;;;;;;2.24;100.00;101595.85;1719499;82;21097;-70
2021/10/02 02:07:28;;;;;;;38.95;20.10;;;;;;;2.26;100.00;101602.39;1719160;83;21043;-70
2021/10/02 02:09:56;;;;;;;40.88;21.07;;;;;;;2.25;100.00;101598.89;1719412;83;21012;-70
2021/10/02 02:12:30;;;;;;;40.52;21.35;;;;;;;2.27;100.00;101602.41;1719192;82;21546;-70
2021/10/02 02:14:54;;;;;;;41.35;20.88;;;;;;;2.26;100.00;101598.06;1719316;82;21051;-70
2021/10/02 02:17:21;;;;;;;39.63;20.25;;;;;;;2.25;100.00;101598.89;1685329;83;21166;-69
2021/10/02 02:19:48;;;;;;;33.13;18.50;;;;;;;2.24;100.00;101598.45;1719542;82;21075;-69
2021/10/02 02:22:14;;;;;;;35.45;19.67;;;;;;;2.21;100.00;101598.80;1719203;83;21075;-70
2021/10/02 02:24:41;;;;;;;39.40;20.50;;;;;;;2.19;100.00;101598.78;1718930;82;21600;-69
2021/10/02 02:27:08;;;;;;;35.30;17.40;;;;;;;2.18;100.00;101602.21;1719199;82;21055;-69
2021/10/02 02:29:34;;;;;;;37.90;20.50;;;;;;;2.19;100.00;101602.69;1719270;83;21224;-71
2021/10/02 02:32:02;;;;;;;43.45;22.52;;;;;;;2.21;100.00;101610.09;1719230;83;21845;-71
2021/10/02 02:34:30;;;;;;;44.05;22.25;;;;;;;2.22;100.00;101609.67;1709200;83;20992;-72
2021/10/02 02:36:58;;;;;;;35.05;20.62;;;;;;;2.18;100.00;101600.05;1719313;83;21461;-73
2021/10/02 02:39:25;;;;;;;27.62;14.60;;;;;;;2.15;100.00;101600.86;1719480;83;21043;-71
2021/10/02 02:41:52;;;;;;;38.25;21.30;;;;;;;2.14;100.00;101602.12;1719247;83;22278;-72
2021/10/02 02:44:18;;;;;;;39.65;20.08;;;;;;;2.14;100.00;101599.52;1719209;82;21043;-73
2021/10/02 02:46:54;;;;;;;38.58;19.25;;;;;;;2.12;100.00;101599.51;1719204;83;21095;-74
2021/10/02 02:49:36;;;;;;;39.65;21.40;;;;;;;2.09;100.00;101599.42;1719586;83;21117;-73
2021/10/02 02:52:10;;;;;;;39.00;21.55;;;;;;;2.09;100.00;101595.13;1719391;82;21079;-74
2021/10/02 02:54:57;;;;;;;46.13;22.77;;;;;;;2.11;100.00;101600.34;1719414;82;21791;-73
2021/10/02 02:57:27;;;;;;;38.20;20.10;;;;;;;2.12;100.00;101599.91;1719243;83;21664;-71
2021/10/02 03:00:04;;;;;;;39.58;20.50;;;;;;;2.09;100.00;101600.33;1719443;83;21527;-72
2021/10/02 03:02:36;;;;;;;38.58;20.10;;;;;;;2.08;100.00;101592.48;1712592;82;21654;-72
2021/10/02 03:05:05;;;;;;;37.05;16.48;;;;;;;2.06;100.00;101590.27;1732550;82;21042;-73
2021/10/02 03:07:33;;;;;;;27.40;15.23;;;;;;;2.06;100.00;101588.97;1732097;82;21148;-73
2021/10/02 03:09:59;;;;;;;38.33;21.15;;;;;;;2.06;100.00;101588.55;1669339;85;21102;-72
2021/10/02 03:12:40;;;;;;;35.52;19.45;;;;;;;2.06;100.00;101586.37;1668809;85;21071;-71
2021/10/02 03:15:10;;;;;;;39.33;21.17;;;;;;;2.05;100.00;101583.34;1668874;85;21074;-73
2021/10/02 03:17:39;;;;;;;;;;;;;;;2.04;100.00;101581.56;1674380;85;21146;-71
2021/10/02 03:20:09;;;;;;;39.83;21.52;;;;;;;2.03;100.00;101583.72;1692561;84;20202;-72
2021/10/02 03:22:36;;;;;;;36.63;20.77;;;;;;;2.00;100.00;101581.94;1740061;82;21102;-70
2021/10/02 03:25:04;;;;;;;43.85;20.85;;;;;;;2.00;100.00;101578.44;1740327;82;21074;-73
2021/10/02 03:27:31;;;;;;;43.25;21.55;;;;;;;2.00;100.00;101579.34;1676608;85;21082;-72
2021/10/02 03:29:57;;;;;;;41.00;21.70;;;;;;;2.00;100.00;101578.44;1677184;85;22199;-72
2021/10/02 03:32:24;;;;;;;37.95;16.93;;;;;;;1.99;100.00;101579.30;1693239;84;21551;-71
2021/10/02 03:34:52;;;;;;;40.90;22.13;;;;;;;1.99;100.00;101579.30;1694191;80;21228;-73
2021/10/02 03:37:19;;;;;;;28.35;13.85;;;;;;;1.99;100.00;101578.00;1741147;81;21052;-75
2021/10/02 03:39:47;;;;;;;29.82;15.32;;;;;;;1.98;100.00;101571.94;1730838;80;21056;-74
2021/10/02 03:42:17;;;;;;;23.87;13.78;;;;;;;2.00;100.00;101575.84;1745608;81;21092;-72
2021/10/02 03:44:46;;;;;;;33.13;18.05;;;;;;;1.99;100.00;101571.50;1763235;81;21108;-73
2021/10/02 03:47:15;;;;;;;27.95;13.75;;;;;;;1.99;100.00;101576.70;1764829;81;20939;-78
2021/10/02 03:49:42;;;;;;;38.85;19.27;;;;;;;1.97;100.00;101579.69;1770103;80;21029;-77
2021/10/02 03:52:10;;;;;;;38.15;20.80;;;;;;;1.97;100.00;101575.36;1760751;80;21067;-79
2021/10/02 03:54:36;;;;;;;45.50;21.17;;;;;;;1.95;100.00;101580.94;1768973;80;21033;-81
2021/10/02 03:57:03;;;;;;;37.28;19.23;;;;;;;1.94;100.00;101579.63;1786125;80;21650;-77
2021/10/02 03:59:31;;;;;;;41.40;20.10;;;;;;;1.94;100.00;101581.80;1784767;79;20966;-76
2021/10/02 04:01:57;;;;;;;37.15;21.55;;;;;;;1.96;100.00;101574.05;1761513;80;21009;-77
2021/10/02 04:04:24;;;;;;;36.48;19.55;;;;;;;1.96;100.00;101574.05;1761394;81;21009;-78
2021/10/02 04:06:51;;;;;;;49.83;21.10;;;;;;;1.98;100.00;101573.63;1760041;81;21056;-78
2021/10/02 04:09:20;;;;;;;40.98;20.15;;;;;;;2.00;100.00;101575.84;1759754;80;21134;-79
2021/10/02 04:11:47;;;;;;;45.63;22.00;;;;;;;2.00;100.00;101578.04;1759679;81;21029;-74
2021/10/02 04:14:14;;;;;;;42.13;20.35;;;;;;;2.02;100.00;101582.82;1759762;80;21043;-78
2021/10/02 04:16:42;;;;;;;42.55;19.73;;;;;;;2.04;100.00;101580.27;1760661;80;21127;-79
2021/10/02 04:19:10;;;;;;;41.37;20.23;;;;;;;2.07;100.00;101584.22;1765450;80;21009;-76
2021/10/02 04:21:37;;;;;;;31.35;18.42;;;;;;;2.09;100.00;101582.13;1751478;81;21136;-77
2021/10/02 04:24:04;;;;;;;29.77;16.10;;;;;;;2.13;100.00;101580.45;1759619;81;21022;-78
2021/10/02 04:26:31;;;;;;;35.30;17.90;;;;;;;2.18;100.00;101578.82;1759970;80;21092;-78
2021/10/02 04:28:57;;;;;;;40.30;20.17;;;;;;;2.22;100.00;101571.55;1760040;81;21603;-79
2021/10/02 04:31:24;;;;;;;41.33;20.95;;;;;;;2.27;100.00;101572.94;1759607;81;21084;-79
2021/10/02 04:33:52;;;;;;;36.15;17.90;;;;;;;2.31;100.00;101576.93;1759602;81;21166;-79
2021/10/02 04:36:19;;;;;;;39.42;18.80;;;;;;;2.35;100.00;101569.18;1758034;81;21021;-78
2021/10/02 04:38:46;;;;;;;38.13;17.75;;;;;;;2.41;100.00;101571.91;1755806;81;21548;-78
2021/10/02 04:41:13;;;;;;;46.40;23.55;;;;;;;2.48;100.00;101569.88;1742639;81;21058;-79
2021/10/02 04:43:44;;;;;;;41.85;24.23;;;;;;;2.54;100.00;101569.14;1737991;81;21066;-77
2021/10/02 04:46:14;;;;;;;41.02;22.82;;;;;;;2.61;100.00;101578.38;1753860;81;21048;-77
2021/10/02 04:48:42;;;;;;;50.10;23.40;;;;;;;2.69;100.00;101578.11;1715606;81;21083;-78
2021/10/02 04:51:10;;;;;;;46.53;23.12;;;;;;;2.80;100.00;101573.50;1725737;81;21096;-78
2021/10/02 04:53:38;;;;;;;57.17;25.70;;;;;;;2.90;100.00;101574.14;1726636;81;21907;-79
2021/10/02 04:56:07;;;;;;;48.02;23.87;;;;;;;3.15;100.00;101576.30;1727486;82;21380;-79
2021/10/02 04:58:35;;;;;;;;;;;;;;;3.69;100.00;101561.92;1727801;82;21665;-79
2021/10/02 05:01:02;;;;;;;50.63;23.60;;;;;;;4.52;100.00;101572.08;1737790;81;20198;-79
2021/10/02 05:03:29;;;;;;;47.13;22.00;;;;;;;5.31;100.00;101573.67;1726700;81;21100;-77
2021/10/02 05:05:55;;;;;;;42.35;23.45;;;;;;;6.08;100.00;101567.22;1730869;81;21116;-82
2021/10/02 05:08:21;;;;;;;57.30;22.30;;;;;;;6.84;100.00;101567.00;1735732;81;21084;-80
2021/10/02 05:10:48;;;;;;;49.83;21.15;;;;;;;7.57;100.00;101559.56;1732814;81;21090;-79
2021/10/02 05:13:14;;;;;;;37.20;21.05;;;;;;;8.27;100.00;101564.15;1727299;81;21060;-80
2021/10/02 05:15:41;;;;;;;37.78;19.23;;;;;;;8.97;96.94;101560.23;1729000;81;21068;-79
2021/10/02 05:18:09;;;;;;;35.40;19.50;;;;;;;9.68;92.93;101557.84;1735163;81;21094;-78
2021/10/02 05:20:37;;;;;;;36.53;20.20;;;;;;;10.32;88.23;101562.83;1728611;81;21124;-79
2021/10/02 05:23:04;;;;;;;48.40;21.97;;;;;;;10.92;84.33;101559.34;1731002;81;21201;-80
2021/10/02 05:25:31;;;;;;;39.10;20.08;;;;;;;11.46;79.65;101558.47;1737096;81;21639;-79
2021/10/02 05:27:59;;;;;;;44.27;21.23;;;;;;;11.94;76.39;101563.75;1730735;81;21136;-78
2021/10/02 05:30:25;;;;;;;31.60;17.77;;;;;;;12.38;72.74;101565.46;1734239;81;21033;-79
2021/10/02 05:32:52;;;;;;;26.87;16.70;;;;;;;12.65;65.08;101564.87;1734299;81;21056;-79
2021/10/02 05:35:19;;;;;;;36.65;18.20;;;;;;;12.82;64.13;101572.44;1749330;79;21542;-81
2021/10/02 05:37:46;;;;;;;34.65;17.10;;;;;;;13.11;64.13;101564.67;1761506;79;21041;-79
2021/10/02 05:40:14;;;;;;;25.60;15.88;;;;;;;13.34;62.09;101565.87;1761353;81;21005;-80
2021/10/02 05:42:40;;;;;;;26.20;16.17;;;;;;;13.57;60.19;101557.34;1762159;81;21582;-79
2021/10/02 05:45:07;;;;;;;28.42;16.73;;;;;;;13.77;58.02;101564.75;1758750;79;22309;-78
2021/10/02 05:47:35;;;;;;;28.47;16.62;;;;;;;13.94;58.40;101569.14;1759968;81;21136;-78
2021/10/02 05:50:02;;;;;;;31.70;16.90;;;;;;;14.19;55.68;101568.41;1759433;81;22045;-78
2021/10/02 05:52:28;;;;;;;22.15;14.47;;;;;;;14.34;54.39;101569.77;1760220;81;21064;-80
2021/10/02 05:54:56;;;;;;;29.20;16.30;;;;;;;14.35;53.73;101571.02;1742169;80;21088;-80
2021/10/02 05:57:22;;;;;;;30.35;15.88;;;;;;;14.34;53.73;101569.30;1767403;80;21135;-83
2021/10/02 05:59:49;;;;;;;50.43;16.77;;;;;;;14.33;53.41;101575.50;1759318;80;22236;-80
2021/10/02 06:02:16;;;;;;;28.65;16.45;;;;;;;14.41;52.32;101569.52;1759301;80;21036;-80
2021/10/02 06:04:42;;;;;;;24.47;15.08;;;;;;;14.58;53.17;101576.13;1760827;80;21044;-79
2021/10/02 06:07:09;;;;;;;26.85;15.10;;;;;;;14.83;52.30;101577.09;1769972;80;21059;-82
2021/10/02 06:09:36;;;;;;;24.32;15.35;;;;;;;14.93;51.95;101571.49;1788282;80;21112;-80
2021/10/02 06:12:04;;;;;;;25.10;16.82;;;;;;;15.11;51.82;101572.22;1791201;79;21139;-79
2021/10/02 06:14:30;;;;;;;27.17;15.23;;;;;;;15.49;49.18;101575.39;1786807;79;21678;-75
2021/10/02 06:16:57;;;;;;;28.70;16.02;;;;;;;15.62;49.95;101570.50;1748885;81;21025;-77
2021/10/02 06:19:23;;;;;;;26.02;15.58;;;;;;;15.97;49.55;101577.26;1762684;80;21064;-76
2021/10/02 06:21:49;;;;;;;26.02;16.02;;;;;;;16.46;47.43;101572.75;1761688;80;21330;-78
2021/10/02 06:24:16;;;;;;;25.15;15.05;;;;;;;16.84;45.57;101570.42;1765853;79;21142;-78
2021/10/02 06:26:43;;;;;;;24.45;15.65;;;;;;;16.91;43.66;101569.23;1762344;81;21451;-79
2021/10/02 06:29:10;;;;;;;21.35;15.85;;;;;;;17.04;43.24;101564.27;1761103;80;21551;-77
2021/10/02 06:31:37;;;;;;;26.55;15.25;;;;;;;17.17;43.43;101569.95;1760135;81;21095;-78
2021/10/02 06:34:03;;;;;;;24.47;14.75;;;;;;;17.39;44.42;101577.45;1758115;80;21092;-75
2021/10/02 06:36:30;;;;;;;24.63;15.90;;;;;;;17.69;43.14;101563.74;1703764;82;22095;-79
2021/10/02 06:38:59;;;;;;;25.80;16.75;;;;;;;18.08;42.75;101558.89;1732698;82;21039;-76
2021/10/02 06:41:26;;;;;;;24.77;16.35;;;;;;;18.24;40.45;101563.95;1704253;82;21059;-76
2021/10/02 06:43:52;;;;;;;21.00;15.75;;;;;;;18.36;40.95;101562.98;1730555;82;21052;-76
2021/10/02 06:46:20;;;;;;;31.80;16.82;;;;;;;18.58;40.71;101562.34;1731168;82;21059;-79
2021/10/02 06:48:46;;;;;;;24.85;15.13;;;;;;;18.64;39.86;101566.06;1731603;82;21163;-78
2021/10/02 06:51:13;;;;;;;22.02;14.60;;;;;;;18.71;39.69;101569.30;1741627;81;21647;-78
2021/10/02 06:53:40;;;;;;;26.60;15.55;;;;;;;19.07;39.82;101566.67;1714574;81;21040;-79
2021/10/02 06:56:08;;;;;;;19.65;13.13;;;;;;;19.60;37.97;101562.20;1735853;81;21170;-77
2021/10/02 06:58:35;;;;;;;22.30;13.58;;;;;;;19.72;39.03;101570.56;1708858;82;21685;-77
2021/10/02 07:01:02;;;;;;;27.22;13.88;;;;;;;19.79;38.62;101572.83;1746087;81;21152;-79
2021/10/02 07:03:29;;;;;;;24.72;14.35;;;;;;;20.03;38.23;101571.12;1760488;81;21068;-80
2021/10/02 07:05:55;;;;;;;20.17;12.93;;;;;;;20.33;37.82;101573.45;1760492;81;21060;-78
2021/10/02 07:08:23;;;;;;;30.02;14.83;;;;;;;20.67;37.98;101572.09;1760625;81;21346;-78
2021/10/02 07:10:52;;;;;;;23.83;13.80;;;;;;;21.02;35.52;101566.53;1760886;81;21080;-79
2021/10/02 07:13:18;;;;;;;26.02;14.43;;;;;;;21.31;35.78;101566.16;1761249;81;21589;-79
2021/10/02 07:15:44;;;;;;;19.23;13.53;;;;;;;21.71;34.97;101557.08;1761420;81;21096;-77
2021/10/02 07:18:11;;;;;;;22.42;13.28;;;;;;;22.08;33.92;101557.48;1761693;81;21095;-80
2021/10/02 07:20:38;;;;;;;20.97;14.65;;;;;;;22.13;33.32;101552.69;1761446;81;21040;-78
2021/10/02 07:23:06;;;;;;;23.10;14.53;;;;;;;22.15;32.47;101552.11;1760835;81;21064;-78
2021/10/02 07:25:33;;;;;;;32.03;13.95;;;;;;;21.78;33.55;101551.72;1761467;81;21977;-76
2021/10/02 07:28:00;;;;;;;18.82;12.98;;;;;;;21.90;34.18;101554.12;1761850;81;20981;-77
2021/10/02 07:30:26;;;;;;;27.93;14.73;;;;;;;22.29;33.72;101554.84;1733385;81;21088;-78
2021/10/02 07:32:53;;;;;;;20.48;11.80;;;;;;;22.58;33.03;101554.77;1711403;83;21054;-80
2021/10/02 07:35:20;;;;;;;19.65;12.18;;;;;;;22.86;32.17;101550.27;1728000;82;21635;-79
2021/10/02 07:37:50;;;;;;;24.20;10.98;;;;;;;23.03;32.19;101548.71;1750352;82;21764;-79
2021/10/02 07:40:19;;;;;;;19.48;11.00;;;;;;;23.13;32.70;101547.11;1738258;81;21060;-79
2021/10/02 07:42:52;;;;;;;30.23;15.93;;;;;;;23.15;32.93;101550.56;1727059;83;21159;-79
2021/10/02 07:45:22;;;;;;;25.77;14.23;;;;;;;23.27;31.79;101543.98;1727650;83;21044;-80
2021/10/02 07:47:52;;;;;;;25.60;14.87;;;;;;;23.25;31.56;101542.23;1730452;83;21053;-79
2021/10/02 07:50:18;;;;;;;31.12;15.55;;;;;;;23.09;30.59;101546.08;1731164;83;21603;-79
2021/10/02 07:52:45;;;;;;;29.20;14.23;;;;;;;23.06;31.41;101537.75;1729071;83;21496;-79
2021/10/02 07:55:15;;;;;;;27.30;15.63;;;;;;;23.33;31.74;101539.05;1727152;83;21613;-78
2021/10/02 07:57:45;;;;;;;26.93;16.73;;;;;;;23.44;30.11;101535.61;1726430;83;21048;-80
2021/10/02 08:00:19;;;;;;;30.05;14.90;;;;;;;23.29;30.75;101539.37;1726700;83;21068;-79
2021/10/02 08:02:49;;;;;;;30.60;15.53;;;;;;;23.06;30.08;101540.44;1726879;83;21555;-80
2021/10/02 08:05:19;;;;;;;28.12;14.15;;;;;;;22.81;30.72;101535.31;1726391;83;21115;-78
2021/10/02 08:07:47;;;;;;;21.93;13.35;;;;;;;22.88;31.36;101540.29;1727305;81;21639;-79
2021/10/02 08:10:17;;;;;;;21.73;13.43;;;;;;;23.31;30.59;101532.06;1756569;80;21101;-77
2021/10/02 08:12:45;;;;;;;25.32;13.48;;;;;;;23.77;30.18;101539.16;1756729;81;21553;-79
2021/10/02 08:15:13;;;;;;;24.75;13.70;;;;;;;24.16;29.36;101529.72;1756568;81;21049;-79
2021/10/02 08:17:42;;;;;;;18.17;11.83;;;;;;;24.49;29.42;101531.80;1756793;81;21019;-80
2021/10/02 08:20:14;;;;;;;18.57;11.20;;;;;;;24.79;28.53;101527.31;1756786;81;21624;-77
2021/10/02 08:22:49;;;;;;;21.48;12.07;;;;;;;24.59;28.42;101530.62;1756451;81;22047;-79
2021/10/02 08:25:21;;;;;;;27.95;13.70;;;;;;;24.27;28.41;101528.42;1756652;81;21066;-79
2021/10/02 08:27:49;;;;;;;22.67;12.63;;;;;;;24.42;28.62;101524.63;1756339;81;21700;-77
2021/10/02 08:30:18;;;;;;;19.37;11.35;;;;;;;24.54;28.43;101528.77;1754919;81;21046;-78
2021/10/02 08:32:48;;;;;;;19.00;11.90;;;;;;;24.68;27.50;101528.59;1754400;80;21070;-78
2021/10/02 08:35:15;;;;;;;16.65;10.55;;;;;;;24.88;27.49;101523.92;1752565;81;21025;-79
2021/10/02 08:37:43;;;;;;;16.17;10.82;;;;;;;24.90;27.36;101530.06;1747649;82;21057;-79
2021/10/02 08:40:14;;;;;;;23.10;11.97;;;;;;;24.95;27.52;101530.20;1747854;82;22311;-78
2021/10/02 08:42:42;;;;;;;18.75;11.55;;;;;;;25.15;26.43;101524.66;1747577;82;21206;-79
2021/10/02 08:45:09;;;;;;;14.87;9.80;;;;;;;25.07;26.41;101531.96;1747686;82;21044;-80
2021/10/02 08:47:38;;;;;;;14.55;9.75;;;;;;;24.81;26.28;101523.16;1749838;82;20986;-78
2021/10/02 08:50:06;;;;;;;17.87;10.00;;;;;;;24.47;26.81;101527.86;1751388;82;21013;-77
2021/10/02 08:52:32;;;;;;;18.55;11.20;;;;;;;24.22;27.48;101521.17;1749016;82;21100;-77
2021/10/02 08:54:59;;;;;;;19.90;10.88;;;;;;;24.15;27.36;101519.91;1747787;82;21072;-80
2021/10/02 08:57:28;;;;;;;12.07;8.13;;;;;;;24.20;27.26;101518.62;1747796;82;21057;-79
2021/10/02 08:59:55;;;;;;;16.10;9.03;;;;;;;24.11;26.44;101518.40;1747755;82;21092;-78
2021/10/02 09:02:23;;;;;;;17.60;9.08;;;;;;;24.03;27.14;101512.23;1747838;82;21108;-80
2021/10/02 09:04:52;;;;;;;12.68;9.30;;;;;;;23.97;27.45;101509.52;1747526;82;21065;-79
2021/10/02 09:07:20;;;;;;;10.55;7.83;;;;;;;23.85;27.02;101510.37;1747603;82;21638;-79
2021/10/02 09:09:48;;;;;;;15.10;9.20;;;;;;;23.90;26.85;101506.86;1747452;82;21104;-79
2021/10/02 09:12:20;;;;;;;22.27;8.35;;;;;;;23.76;26.61;101508.33;1747477;82;21540;-79
2021/10/02 09:14:50;;;;;;;14.07;7.70;;;;;;;23.59;26.98;101503.63;1747517;82;21107;-78
2021/10/02 09:17:18;;;;;;;15.95;7.75;;;;;;;23.51;26.79;101507.81;1748024;82;21060;-79
2021/10/02 09:19:45;;;;;;;15.00;6.80;;;;;;;23.39;27.01;101502.31;1747415;82;21022;-78
2021/10/02 09:22:17;;;;;;;8.25;5.92;;;;;;;23.46;27.60;101498.23;1747811;82;21339;-80
2021/10/02 09:24:45;;;;;;;11.35;6.15;;;;;;;23.55;26.60;101503.45;1747353;82;21336;-78
2021/10/02 09:27:24;;;;;;;8.85;5.65;;;;;;;23.42;26.77;101497.20;1747805;82;21052;-81
2021/10/02 09:29:59;;;;;;;8.93;6.05;;;;;;;23.34;27.55;101492.38;1748852;81;21517;-81
2021/10/02 09:32:35;;;;;;;8.68;5.47;;;;;;;23.28;27.38;101485.22;1751350;81;21571;-80
2021/10/02 09:35:06;;;;;;;9.30;5.47;;;;;;;23.12;27.74;101487.64;1751715;81;21582;-78
2021/10/02 09:37:38;;;;;;;8.03;5.22;;;;;;;23.22;27.60;101483.34;1760443;81;21044;-79
2021/10/02 09:40:17;;;;;;;10.80;5.50;;;;;;;23.66;26.95;101481.20;1760702;81;21052;-80
2021/10/02 09:42:54;;;;;;;9.83;5.00;;;;;;;23.87;27.23;101484.22;1760612;81;21156;-80
2021/10/02 09:45:30;;;;;;;8.73;5.03;;;;;;;23.75;25.85;101487.80;1760836;81;21075;-79
2021/10/02 09:48:00;;;;;;;10.10;5.78;;;;;;;23.81;25.62;101475.23;1732209;81;21021;-79
2021/10/02 09:50:31;;;;;;;11.10;5.75;;;;;;;23.93;26.00;101475.72;1760547;81;21017;-81
2021/10/02 09:53:17;;;;;;;9.00;5.17;;;;;;;23.92;26.11;101478.52;1760583;81;21013;-77
2021/10/02 09:55:46;;;;;;;11.65;4.72;;;;;;;23.86;25.49;101464.53;1760472;81;21531;-80
2021/10/02 09:58:15;;;;;;;11.28;5.28;;;;;;;23.43;25.95;101470.23;1760504;80;21096;-79
2021/10/02 10:00:46;;;;;;;7.15;4.67;;;;;;;23.02;26.20;101471.75;1760401;81;21076;-81
2021/10/02 10:03:15;;;;;;;;;;;;;;;22.78;26.67;101463.02;1763580;81;21032;-80
2021/10/02 10:05:46;;;;;;;11.18;4.83;;;;;;;22.94;27.49;101459.30;1760514;80;20173;-77
2021/10/02 10:08:26;;;;;;;8.93;4.53;;;;;;;23.15;26.50;101465.92;1760664;81;21761;-80
2021/10/02 10:11:11;;;;;;;9.13;4.87;;;;;;;23.21;26.78;101460.13;1760456;81;21024;-79
2021/10/02 10:13:38;;;;;;;7.75;4.80;;;;;;;23.33;26.01;101450.81;1770378;80;20997;-79
2021/10/02 10:16:08;;;;;;;6.37;4.62;;;;;;;23.26;26.77;101454.44;1773342;79;21075;-80
2021/10/02 10:18:37;;;;;;;10.30;4.65;;;;;;;23.14;26.71;101449.40;1778600;80;21036;-79
2021/10/02 10:21:10;;;;;;;13.32;5.70;;;;;;;22.76;28.01;101446.14;1772415;80;21201;-79
2021/10/02 10:23:42;;;;;;;11.40;5.75;;;;;;;22.47;27.67;101451.25;1791929;79;20978;-81
2021/10/02 10:26:14;;;;;;;14.43;5.40;;;;;;;22.52;27.46;101445.09;1791934;80;21567;-80
2021/10/02 10:28:46;;;;;;;10.80;5.90;;;;;;;22.41;27.66;101442.66;1770910;79;21076;-78
2021/10/02 10:31:23;;;;;;;12.63;5.62;;;;;;;22.13;28.10;101442.69;1757172;79;21103;-79
2021/10/02 10:33:54;;;;;;;8.85;6.08;;;;;;;22.18;28.01;101434.73;1747150;79;21380;-78
2021/10/02 10:36:26;;;;;;;10.82;5.35;;;;;;;22.38;28.03;101433.47;1763571;80;21060;-81
2021/10/02 10:38:53;;;;;;;56.35;8.68;;;;;;;22.51;28.15;101431.30;1762650;79;21539;-77
2021/10/02 10:41:21;;;;;;;16.65;6.67;;;;;;;22.55;27.58;101426.97;1762387;79;21128;-81
2021/10/02 10:43:50;;;;;;;11.85;6.30;;;;;;;22.33;27.63;101431.55;1767832;80;21131;-82
2021/10/02 10:46:23;;;;;;;14.98;5.90;;;;;;;22.27;27.93;101427.06;1764276;79;21048;-80
2021/10/02 10:48:54;;;;;;;13.65;6.17;;;;;;;21.75;28.10;101429.93;1760240;81;21132;-82
2021/10/02 10:51:19;;;;;;;13.22;6.33;;;;;;;21.54;28.44;101426.30;1763943;79;21033;-82
2021/10/02 10:53:50;;;;;;;15.58;6.30;;;;;;;21.65;28.55;101424.75;1760037;81;21666;-81
2021/10/02 10:56:20;;;;;;;10.90;5.70;;;;;;;21.77;28.22;101424.84;1734793;81;21074;-81
2021/10/02 10:58:59;;;;;;;13.43;7.50;;;;;;;21.84;27.47;101410.57;1718686;82;21590;-80
2021/10/02 11:01:36;;;;;;;15.03;7.83;;;;;;;21.70;27.80;101415.96;1751908;79;21068;-83
2021/10/02 11:04:03;;;;;;;10.65;6.53;;;;;;;21.33;27.80;101419.57;1752005;81;22036;-81
2021/10/02 11:06:55;;;;;;;14.68;7.08;;;;;;;21.14;27.90;101407.31;1752719;79;21017;-82
2021/10/02 11:09:42;;;;;;;10.45;7.15;;;;;;;21.28;28.00;101407.80;1709502;80;21096;-83
2021/10/02 11:12:12;;;;;;;13.35;5.78;;;;;;;21.57;28.05;101407.33;1734037;81;21571;-81
2021/10/02 11:14:54;;;;;;;14.78;6.25;;;;;;;21.76;27.91;101406.16;1755140;80;21044;-80
2021/10/02 11:17:35;;;;;;;8.73;5.00;;;;;;;21.95;27.77;101403.19;1759581;80;25745;-81
2021/10/02 11:20:32;;;;;;;11.97;5.65;;;;;;;22.11;28.73;101403.02;1759775;81;21045;-81
2021/10/02 11:23:40;;;;;;;11.90;6.72;;;;;;;21.94;28.15;101394.25;1756123;81;21025;-80
2021/10/02 11:26:23;;;;;;;10.43;5.78;;;;;;;21.89;27.02;101414.30;1765131;79;22129;-81
2021/10/02 11:29:00;;;;;;;15.25;6.12;;;;;;;21.14;28.06;101409.98;1750841;80;21061;-80
2021/10/02 11:31:27;;;;;;;14.20;5.75;;;;;;;20.80;28.42;101398.22;1740838;81;21527;-81
2021/10/02 11:35:08;;;;;;;9.28;6.17;;;;;;;20.86;28.28;101390.69;1808785;79;22560;-81
2021/10/02 11:37:56;;;;;;;16.75;6.75;;;;;;;20.59;29.30;101385.19;1766563;79;20989;-78
2021/10/02 11:40:45;;;;;;;16.07;6.58;;;;;;;20.11;29.78;101392.41;1755932;81;21044;-80
2021/10/02 11:43:22;;;;;;;11.50;6.25;;;;;;;19.64;30.28;101400.73;1757206;80;21492;-80
2021/10/02 11:45:54;;;;;;;8.95;6.35;;;;;;;19.43;31.84;101392.09;1745203;80;21057;-78
2021/10/02 11:48:36;;;;;;;15.88;7.28;;;;;;;19.34;31.09;101395.25;1757860;80;21072;-79
2021/10/02 11:51:21;;;;;;;13.78;5.85;;;;;;;19.32;30.93;101393.61;1725656;81;21472;-81
2021/10/02 11:53:56;;;;;;;14.68;6.05;;;;;;;19.14;31.31;101387.44;1746345;81;21188;-80
2021/10/02 11:56:28;;;;;;;11.73;6.35;;;;;;;19.06;31.65;101386.04;1756855;81;21032;-81
2021/10/02 11:58:58;;;;;;;8.25;6.10;;;;;;;19.04;31.60;101390.59;1739079;81;21120;-81
2021/10/02 12:01:27;;;;;;;14.80;7.50;;;;;;;18.94;33.68;101382.69;1754460;81;21001;-80
2021/10/02 12:04:07;;;;;;;11.50;6.28;;;;;;;18.97;32.37;101383.86;1755016;81;21112;-80
2021/10/02 12:06:39;;;;;;;12.05;6.00;;;;;;;19.04;31.99;101375.91;1744438;81;21037;-80
2021/10/02 12:09:08;;;;;;;18.30;6.35;;;;;;;19.13;32.88;101369.70;1739734;81;21020;-80
2021/10/02 12:11:41;;;;;;;12.95;6.83;;;;;;;19.20;32.86;101371.10;1734897;81;23761;-81
2021/10/02 12:14:08;;;;;;;10.95;6.55;;;;;;;19.21;32.16;101375.48;1743690;80;21081;-80
2021/10/02 12:16:36;;;;;;;11.00;6.12;;;;;;;19.34;32.30;101369.88;1733845;81;21613;-82
2021/10/02 12:19:20;;;;;;;15.60;6.53;;;;;;;19.51;32.05;101368.98;1735960;81;21494;-81